King City, Canada
Current Conditions -  °F | °C
As of 2:00 PM on Monday 20 Oct 2014 (Local Time) from CYKZ Reporting Station
Overcast Overcast  
Wind Chill: 48°   Ceiling: 3800
Heat Index: 48°   Visibility: 12mi
Dew Point: 48°   Wind: 3mph
Humidity: 100%   Direction: 90°E
Pressure: 29.8"   Gusts: NA
Location:  43.93°N, 79.53°W
Report Text: CYKZ 201800Z 09003KT 12SM FEW015 OVC038 09/09 A2980 RMK SC2SC6SLP096
Loading
Personal Weather Stations






























Interactive Weather Map
Tropical Storm Tracking
New forecast layout! Learn more

10-Day Weather Forecast

Advertisements
Track Severe Weather on mobile